Ana Sayfa
METAR-TAF:

METAR-TAF

Havaalanları :

Hearne Municipal Airport

Hearne, Teksas, Amerika Birleşik Devletleri

Enlem: 30-52-18N, Boylam: 096-37-20W, yükseklik: 87 m

Güncel hava durumu gözlemi

Rapor saat 16:15 UTC de 26 dakika önce yapıldı.
Rüzgar kuzeydan 4 kt
Sıcaklık 6°C
Nem 93%
Basınç 1026 hPa
Görüş mesafesi: 4.8 km
500 ft yükseklikte çok bulutlu
Pus

METAR: KLHB 141615Z AUTO 36004KT 3SM BR OVC005 06/05 A3031 RMK AO2 T00610054

Saat: 10:41 (16:41 UTC)


TAF: eksik

4.000'den fazla havaalanı için hava durumu gözlemleri ve tahminleri (METAR ve TAF raporları).

Kullanılabilir istasyonlar harita üzerinde sarı ve kırmızı noktalarla gösterilir.

İstasyonun adını görmek için fareyi noktanın üzerinde gezdirin.

Sonrasında hava gözlem ve tahminlerini görmek için tıklayın.

Haritayı değiştirmek için: yaklaştırmak için siyah artı işaretli yeşil düğmeye ve uzaklaştırmak için de eksi işaretli düğmeye hızla tıklayın; bitişik haritalar için yeşil okları kullanın.


METAR-TAF: